Time;durP1;ratioP1;P1;durP2;ratioP2;P2;SDS_P1;SDS_P2;PMS_P1;PMS_P2;Temp;Humidity;BMP_temperature;BMP_pressure;BME280_temperature;BME280_humidity;BME280_pressure;Samples;Min_cycle;Max_cycle;Signal;HPM_P1;HPM_P2
2022/10/23 00:01:17;;;;;;;8.57;5.47;;;;;;;11.30;100.00;100945.34;6055001;23;20030;-72
2022/10/23 00:03:45;;;;;;;5.57;5.18;;;;;;;10.91;100.00;100880.78;6082866;23;20022;-75
2022/10/23 00:06:13;;;;;;;6.55;5.95;;;;;;;10.75;100.00;100870.22;6063674;23;20097;-73
2022/10/23 00:08:40;;;;;;;5.75;5.35;;;;;;;10.89;100.00;100871.31;6098754;23;20021;-74
2022/10/23 00:11:11;;;;;;;6.05;5.65;;;;;;;11.42;100.00;100938.59;6083576;23;20084;-74
2022/10/23 00:13:38;;;;;;;6.53;6.03;;;;;;;11.15;100.00;100906.72;6057699;23;20030;-74
2022/10/23 00:16:05;;;;;;;6.28;5.80;;;;;;;10.66;100.00;100828.66;6078038;23;20034;-74
2022/10/23 00:18:32;;;;;;;5.53;5.20;;;;;;;11.24;100.00;100942.19;6072789;23;20041;-75
2022/10/23 00:21:00;;;;;;;6.60;5.57;;;;;;;10.86;100.00;100887.19;6052870;23;20042;-73
2022/10/23 00:23:27;;;;;;;8.88;5.40;;;;;;;11.05;100.00;100916.84;6076666;23;20030;-74
2022/10/23 00:25:53;;;;;;;6.38;5.88;;;;;;;10.86;100.00;100895.91;6078097;23;20534;-73
2022/10/23 00:28:20;;;;;;;5.57;5.22;;;;;;;10.94;100.00;100916.53;6083216;23;20097;-76
2022/10/23 00:30:46;;;;;;;5.70;5.22;;;;;;;11.06;100.00;100936.94;6086243;23;20467;-74
2022/10/23 00:33:13;;;;;;;7.68;6.07;;;;;;;10.96;100.00;100912.06;6064813;23;20075;-73
2022/10/23 00:35:43;;;;;;;6.95;6.25;;;;;;;11.13;100.00;100937.47;6079194;23;20030;-75
2022/10/23 00:38:10;;;;;;;5.65;5.32;;;;;;;11.15;100.00;100936.47;6084231;23;20022;-75
2022/10/23 00:40:38;;;;;;;5.40;4.97;;;;;;;11.14;100.00;100934.75;6077696;23;20018;-74
2022/10/23 00:43:15;;;;;;;9.90;5.78;;;;;;;11.21;100.00;100937.09;6075876;23;20218;-73
2022/10/23 00:45:41;;;;;;;5.32;5.03;;;;;;;10.80;100.00;100863.88;6073557;23;20038;-76
2022/10/23 00:48:07;;;;;;;5.60;5.20;;;;;;;11.23;100.00;100924.75;6055453;23;20026;-75
2022/10/23 00:50:34;;;;;;;9.77;5.60;;;;;;;11.04;100.00;100896.75;6078015;23;20475;-73
2022/10/23 00:53:03;;;;;;;5.35;5.05;;;;;;;11.04;100.00;100890.66;6046946;23;20352;-73
2022/10/23 00:55:32;;;;;;;7.45;4.88;;;;;;;11.17;100.00;100921.47;6083525;23;20034;-74
2022/10/23 00:57:59;;;;;;;5.93;5.53;;;;;;;10.88;100.00;100874.84;6054409;23;20070;-75
2022/10/23 01:00:29;;;;;;;5.50;5.10;;;;;;;11.07;100.00;100912.38;6050735;23;20018;-74
2022/10/23 01:02:56;;;;;;;5.72;5.07;;;;;;;10.76;100.00;100858.78;6046240;23;20026;-75
2022/10/23 01:05:30;;;;;;;6.00;5.60;;;;;;;11.22;100.00;100929.13;6066040;23;20037;-75
2022/10/23 01:08:06;;;;;;;5.50;5.13;;;;;;;10.94;100.00;100893.78;6058078;23;20042;-75
2022/10/23 01:10:42;;;;;;;11.10;5.05;;;;;;;11.24;100.00;100927.25;6083608;23;20078;-74
2022/10/23 01:13:19;;;;;;;5.13;4.82;;;;;;;10.57;100.00;100844.88;6081079;23;20359;-74
2022/10/23 01:16:04;;;;;;;6.00;5.10;;;;;;;11.25;100.00;100922.88;6074375;23;20038;-73
2022/10/23 01:18:40;;;;;;;5.28;4.90;;;;;;;11.25;100.00;100923.72;6082350;23;20014;-73
2022/10/23 01:21:12;;;;;;;5.78;5.45;;;;;;;11.26;100.00;100932.44;6073516;23;20080;-73
2022/10/23 01:24:02;;;;;;;5.82;5.43;;;;;;;10.27;100.00;100764.13;6086689;23;20141;-74
2022/10/23 01:26:38;;;;;;;6.07;5.68;;;;;;;11.32;100.00;100934.75;6082436;23;20109;-75
2022/10/23 01:29:15;;;;;;;5.82;5.20;;;;;;;11.21;100.00;100910.84;6084189;23;20083;-73
2022/10/23 01:31:56;;;;;;;5.40;5.00;;;;;;;11.20;100.00;100909.13;6074813;23;20795;-74
2022/10/23 01:34:46;;;;;;;5.70;5.30;;;;;;;11.36;100.00;100921.38;6089908;23;20091;-75
2022/10/23 01:37:18;;;;;;;6.40;5.78;;;;;;;11.34;100.00;100923.22;6048182;23;20014;-73
2022/10/23 01:39:51;;;;;;;5.57;5.18;;;;;;;11.33;100.00;100931.22;6081984;23;20042;-74
2022/10/23 01:42:23;;;;;;;;;;;;;;;11.32;100.00;100925.09;6079132;23;20101;-73
2022/10/23 01:44:59;;;;;;;5.72;5.32;;;;;;;10.91;100.00;100845.81;6059261;23;19981;-74
2022/10/23 01:47:29;;;;;;;4.95;4.68;;;;;;;11.43;100.00;100914.03;6084449;23;20033;-73
2022/10/23 01:49:58;;;;;;;5.53;5.13;;;;;;;11.43;100.00;100915.81;6079270;23;20034;-73
2022/10/23 01:52:25;;;;;;;5.10;4.75;;;;;;;11.35;100.00;100905.69;6087008;23;20030;-74
2022/10/23 01:54:55;;;;;;;5.43;5.13;;;;;;;11.00;100.00;100850.56;6085259;23;20018;-76
2022/10/23 01:57:24;;;;;;;5.65;5.35;;;;;;;11.31;100.00;100889.25;6050056;23;20413;-74
2022/10/23 01:59:57;;;;;;;6.07;5.53;;;;;;;11.34;100.00;100890.84;6076323;23;20028;-76
2022/10/23 02:02:26;;;;;;;5.78;5.28;;;;;;;10.48;100.00;100737.75;6075296;23;20030;-74
2022/10/23 02:05:02;;;;;;;5.00;4.70;;;;;;;11.12;100.00;100851.72;6087719;23;20029;-73
2022/10/23 02:07:29;;;;;;;5.88;5.38;;;;;;;10.44;100.00;100736.22;6050518;23;20404;-74
2022/10/23 02:09:55;;;;;;;5.07;4.78;;;;;;;11.14;100.00;100831.47;6084193;23;20017;-76
2022/10/23 02:12:32;;;;;;;6.05;5.28;;;;;;;11.36;100.00;100868.81;6048428;23;20022;-74
2022/10/23 02:15:05;;;;;;;4.90;4.60;;;;;;;11.41;100.00;100865.97;6056809;23;20037;-73
2022/10/23 02:18:01;;;;;;;4.75;4.55;;;;;;;11.18;100.00;100839.13;6066236;23;20022;-76
2022/10/23 02:20:40;;;;;;;5.30;5.00;;;;;;;11.44;100.00;100873.66;6048312;23;20054;-76
2022/10/23 02:23:33;;;;;;;5.60;5.20;;;;;;;11.51;100.00;100892.63;6084415;23;20063;-75
2022/10/23 02:26:08;;;;;;;5.28;5.00;;;;;;;11.46;100.00;100898.09;6075257;23;20041;-74
2022/10/23 02:28:43;;;;;;;15.15;5.55;;;;;;;11.44;100.00;100884.19;6075668;23;20407;-75
2022/10/23 02:31:13;;;;;;;5.10;4.80;;;;;;;11.44;100.00;100894.69;6051081;23;20071;-75
2022/10/23 02:33:39;;;;;;;5.05;4.82;;;;;;;11.47;100.00;100886.66;6085649;23;20022;-74
2022/10/23 02:36:06;;;;;;;6.25;5.85;;;;;;;11.52;100.00;100874.09;6086540;23;20038;-74
2022/10/23 02:38:41;;;;;;;5.25;4.95;;;;;;;11.58;100.00;100875.56;6079660;23;20034;-75
2022/10/23 02:41:45;;;;;;;4.88;4.65;;;;;;;11.57;100.00;100866.84;6069308;23;20495;-75
2022/10/23 02:44:39;;;;;;;5.53;5.07;;;;;;;11.57;100.00;100858.97;6075550;23;20288;-74
2022/10/23 02:47:29;;;;;;;6.30;4.85;;;;;;;11.09;100.00;100783.59;6056164;23;20568;-75
2022/10/23 02:50:17;;;;;;;5.50;5.15;;;;;;;11.68;100.00;100868.88;6075530;23;20490;-73
2022/10/23 02:53:17;;;;;;;4.80;4.50;;;;;;;11.33;100.00;100802.47;6055951;23;20026;-74
2022/10/23 02:55:55;;;;;;;5.25;4.95;;;;;;;11.75;100.00;100861.53;6086815;23;20155;-74
2022/10/23 02:58:46;;;;;;;5.00;4.70;;;;;;;11.75;100.00;100859.75;6084238;23;20022;-75
2022/10/23 03:01:20;;;;;;;6.78;6.38;;;;;;;11.43;100.00;100806.28;6074240;23;20021;-73
2022/10/23 03:03:52;;;;;;;5.32;5.03;;;;;;;11.33;100.00;100797.22;6053052;23;20026;-73
2022/10/23 03:06:19;;;;;;;4.70;4.40;;;;;;;11.64;100.00;100842.84;6045063;23;20082;-76
2022/10/23 03:08:52;;;;;;;5.43;4.88;;;;;;;11.57;100.00;100831.84;6059418;23;20021;-72
2022/10/23 03:11:19;;;;;;;5.15;4.85;;;;;;;11.78;100.00;100863.97;6047934;23;20018;-74
2022/10/23 03:13:49;;;;;;;4.70;4.50;;;;;;;11.48;100.00;100795.53;6056528;23;20087;-77
2022/10/23 03:16:15;;;;;;;5.28;4.88;;;;;;;11.88;100.00;100840.66;6086082;23;20025;-74
2022/10/23 03:18:44;;;;;;;19.38;17.88;;;;;;;11.62;100.00;100777.22;5951728;23;20316;-72
2022/10/23 03:21:14;;;;;;;7.75;4.72;;;;;;;11.66;100.00;100785.78;6058862;23;20025;-74
2022/10/23 03:23:40;;;;;;;5.00;4.70;;;;;;;11.70;100.00;100795.19;6053327;23;20035;-73
2022/10/23 03:26:07;;;;;;;4.95;4.65;;;;;;;11.77;100.00;100801.81;6086215;23;20083;-73
2022/10/23 03:28:34;;;;;;;5.72;5.32;;;;;;;10.91;100.00;100672.53;6078446;23;20510;-74
2022/10/23 03:31:01;;;;;;;5.40;5.00;;;;;;;11.62;100.00;100766.69;6050894;23;20060;-73
2022/10/23 03:33:28;;;;;;;4.90;4.65;;;;;;;11.83;100.00;100812.00;6085477;23;20060;-74
2022/10/23 03:35:55;;;;;;;5.38;5.07;;;;;;;11.94;100.00;100812.25;6049498;23;20095;-75
2022/10/23 03:38:23;;;;;;;5.22;4.93;;;;;;;11.87;100.00;100804.78;6086132;23;20045;-75
2022/10/23 03:40:50;;;;;;;5.22;4.93;;;;;;;11.69;100.00;100788.25;6028464;23;20034;-73
2022/10/23 03:43:16;;;;;;;6.13;5.32;;;;;;;11.90;100.00;100823.88;6071368;23;20022;-75
2022/10/23 03:45:43;;;;;;;5.20;4.90;;;;;;;11.89;100.00;100834.50;6079950;23;20058;-76
2022/10/23 03:48:09;;;;;;;5.05;4.75;;;;;;;11.44;100.00;100754.56;6080518;23;20085;-72
2022/10/23 03:50:36;;;;;;;5.00;4.70;;;;;;;11.89;100.00;100837.97;6056973;23;20030;-75
2022/10/23 03:53:02;;;;;;;4.57;4.38;;;;;;;11.88;100.00;100838.03;6052191;23;20226;-73
2022/10/23 03:55:28;;;;;;;5.80;5.35;;;;;;;11.43;100.00;100769.50;6032795;23;20031;-74
2022/10/23 03:57:55;;;;;;;5.00;4.75;;;;;;;11.57;100.00;100792.41;6023031;23;20265;-72
2022/10/23 04:00:21;;;;;;;4.90;4.50;;;;;;;11.58;100.00;100800.19;6050299;23;20054;-74
2022/10/23 04:02:48;;;;;;;10.35;5.32;;;;;;;11.87;100.00;100847.69;6026836;23;20088;-73
2022/10/23 04:05:14;;;;;;;5.05;4.75;;;;;;;11.85;100.00;100841.69;6046949;23;20063;-74
2022/10/23 04:07:41;;;;;;;4.88;4.68;;;;;;;11.49;100.00;100776.22;6048532;23;20033;-72
2022/10/23 04:10:07;;;;;;;5.43;5.03;;;;;;;11.09;100.00;100684.66;6052482;23;20504;-73
2022/10/23 04:12:34;;;;;;;5.35;5.05;;;;;;;11.94;100.00;100820.16;6022141;23;20014;-76
2022/10/23 04:15:00;;;;;;;5.13;4.68;;;;;;;11.73;100.00;100787.16;6026410;23;20027;-76
2022/10/23 04:17:27;;;;;;;5.28;4.88;;;;;;;11.70;100.00;100790.78;6050006;23;20030;-72
2022/10/23 04:19:58;;;;;;;5.40;5.00;;;;;;;11.51;100.00;100759.41;6051819;23;20014;-73
2022/10/23 04:22:24;;;;;;;5.00;4.70;;;;;;;11.98;100.00;100833.97;6048367;23;20084;-75
2022/10/23 04:24:53;;;;;;;4.68;4.47;;;;;;;11.99;100.00;100825.16;6021783;23;20031;-74
2022/10/23 04:27:20;;;;;;;5.40;5.10;;;;;;;11.71;100.00;100781.13;6054604;23;20040;-73
2022/10/23 04:29:46;;;;;;;5.10;4.80;;;;;;;11.97;100.00;100806.84;6054215;23;20018;-75
2022/10/23 04:32:12;;;;;;;4.50;4.30;;;;;;;11.85;100.00;100781.19;6066868;23;20015;-74
2022/10/23 04:34:39;;;;;;;5.05;4.75;;;;;;;11.53;100.00;100730.44;6016038;23;20037;-73
2022/10/23 04:37:05;;;;;;;5.20;4.90;;;;;;;11.83;100.00;100787.50;6021388;23;20093;-73
2022/10/23 04:39:32;;;;;;;4.93;4.63;;;;;;;11.67;100.00;100776.97;6028681;23;20026;-73
2022/10/23 04:41:58;;;;;;;5.70;5.28;;;;;;;11.96;100.00;100806.91;6047184;23;20045;-73
2022/10/23 04:44:24;;;;;;;5.20;4.68;;;;;;;11.88;100.00;100778.38;6002757;23;20022;-73
2022/10/23 04:46:51;;;;;;;5.03;4.72;;;;;;;12.04;100.00;100786.28;6052230;23;20018;-73
2022/10/23 04:49:17;;;;;;;5.00;4.72;;;;;;;12.11;100.00;100786.81;6038117;23;20119;-73
2022/10/23 04:51:44;;;;;;;5.13;4.82;;;;;;;11.65;100.00;100721.00;6075076;23;20019;-74
2022/10/23 04:54:10;;;;;;;5.03;4.63;;;;;;;12.21;100.00;100789.72;6033276;23;20140;-72
2022/10/23 04:56:37;;;;;;;5.50;5.07;;;;;;;12.16;100.00;100782.94;6079689;23;20025;-74
2022/10/23 04:59:04;;;;;;;4.80;4.50;;;;;;;11.96;100.00;100751.69;6052305;23;20080;-74
2022/10/23 05:01:35;;;;;;;5.20;4.90;;;;;;;11.76;100.00;100721.22;6057003;23;20052;-75
2022/10/23 05:04:02;;;;;;;5.50;5.10;;;;;;;12.14;100.00;100776.09;6070255;23;20051;-73
2022/10/23 05:06:28;;;;;;;4.75;4.45;;;;;;;11.83;100.00;100755.94;6080273;23;20021;-72
2022/10/23 05:08:55;;;;;;;4.85;4.60;;;;;;;11.68;100.00;100723.44;6050818;23;20030;-74
2022/10/23 05:11:21;;;;;;;5.32;4.93;;;;;;;11.85;100.00;100768.06;6084898;23;20030;-74
2022/10/23 05:13:48;;;;;;;6.30;4.72;;;;;;;12.05;100.00;100782.72;6060349;23;20018;-75
2022/10/23 05:16:30;;;;;;;7.57;4.32;;;;;;;11.96;100.00;100778.81;6075152;23;20057;-74
2022/10/23 05:18:58;;;;;;;4.82;4.53;;;;;;;11.54;100.00;100716.34;6060811;23;20037;-74
2022/10/23 05:21:28;;;;;;;6.47;5.00;;;;;;;11.91;100.00;100780.88;6022357;23;20018;-74
2022/10/23 05:23:56;;;;;;;6.78;4.60;;;;;;;11.86;100.00;100779.41;6083807;23;20030;-73
2022/10/23 05:26:22;;;;;;;4.50;4.30;;;;;;;11.78;100.00;100769.31;6059721;23;20096;-74
2022/10/23 05:28:49;;;;;;;4.75;4.55;;;;;;;11.41;100.00;100708.31;6082093;23;20026;-73
2022/10/23 05:31:17;;;;;;;4.82;4.55;;;;;;;11.53;100.00;100735.69;6077225;23;20086;-74
2022/10/23 05:33:45;;;;;;;4.47;4.28;;;;;;;11.64;100.00;100740.31;6083572;23;20049;-73
2022/10/23 05:36:13;;;;;;;5.97;5.13;;;;;;;11.68;100.00;100761.09;6081301;23;20495;-73
2022/10/23 05:38:39;;;;;;;4.70;4.50;;;;;;;11.70;100.00;100758.38;6076974;23;20037;-75
2022/10/23 05:41:07;;;;;;;5.50;5.10;;;;;;;11.36;100.00;100699.81;6083104;23;20068;-74
2022/10/23 05:43:33;;;;;;;5.07;4.78;;;;;;;11.41;100.00;100713.56;6080600;23;20018;-73
2022/10/23 05:46:03;;;;;;;4.82;4.63;;;;;;;11.74;100.00;100755.50;6074283;23;20034;-73
2022/10/23 05:48:30;;;;;;;4.70;4.50;;;;;;;11.74;100.00;100752.03;6055020;23;20459;-73
2022/10/23 05:51:09;;;;;;;4.80;4.60;;;;;;;11.10;100.00;100665.31;6030336;23;20038;-73
2022/10/23 05:53:35;;;;;;;7.15;5.13;;;;;;;11.54;100.00;100721.59;6086004;23;20037;-73
2022/10/23 05:56:08;;;;;;;4.70;4.50;;;;;;;9.82;100.00;100445.66;6067701;23;20030;-72
2022/10/23 05:58:35;;;;;;;4.70;4.50;;;;;;;11.53;100.00;100710.25;6085730;23;20530;-74
2022/10/23 06:01:06;;;;;;;5.40;5.10;;;;;;;11.63;100.00;100709.72;6054059;23;20026;-71
2022/10/23 06:03:33;;;;;;;8.33;4.23;;;;;;;11.74;100.00;100731.81;6086537;23;20033;-74
2022/10/23 06:06:02;;;;;;;4.80;4.60;;;;;;;11.33;100.00;100648.28;6048493;23;20080;-74
2022/10/23 06:08:30;;;;;;;4.65;4.45;;;;;;;11.80;100.00;100721.91;6086852;23;20580;-73
2022/10/23 06:10:57;;;;;;;4.68;4.38;;;;;;;11.45;100.00;100677.44;6048390;23;20088;-74
2022/10/23 06:13:23;;;;;;;4.70;4.50;;;;;;;11.18;100.00;100636.88;6073402;23;20038;-77
2022/10/23 06:15:49;;;;;;;5.40;4.90;;;;;;;11.77;100.00;100722.94;6087292;23;20029;-74
2022/10/23 06:18:16;;;;;;;4.32;4.13;;;;;;;11.76;100.00;100718.59;6081650;23;20010;-74
2022/10/23 06:20:43;;;;;;;4.90;4.60;;;;;;;11.52;100.00;100677.00;6054879;23;20076;-73
2022/10/23 06:23:09;;;;;;;4.80;4.53;;;;;;;10.73;100.00;100543.94;6053347;23;20061;-74
2022/10/23 06:25:36;;;;;;;4.50;4.30;;;;;;;11.46;100.00;100666.81;6084023;23;20530;-74
2022/10/23 06:28:02;;;;;;;4.80;4.50;;;;;;;11.84;100.00;100723.44;6083904;23;20026;-75
2022/10/23 06:30:28;;;;;;;5.05;4.70;;;;;;;11.68;100.00;100692.75;6055506;23;20035;-74
2022/10/23 06:32:55;;;;;;;4.53;4.32;;;;;;;11.71;100.00;100673.34;6081179;23;20026;-76
2022/10/23 06:35:21;;;;;;;5.40;5.00;;;;;;;11.97;100.00;100721.84;6056846;23;20027;-77
2022/10/23 06:37:49;;;;;;;4.97;4.65;;;;;;;11.53;100.00;100639.28;6061794;23;20021;-76
2022/10/23 06:40:17;;;;;;;12.15;4.97;;;;;;;11.97;100.00;100706.91;6072591;23;20025;-75
2022/10/23 06:42:43;;;;;;;5.38;5.07;;;;;;;12.03;100.00;100710.97;6049823;23;20027;-73
2022/10/23 06:45:10;;;;;;;5.03;4.72;;;;;;;12.08;100.00;100711.53;6086789;23;20416;-75
2022/10/23 06:47:36;;;;;;;4.90;4.60;;;;;;;11.77;100.00;100660.69;6053971;23;20042;-76
2022/10/23 06:50:03;;;;;;;10.43;5.32;;;;;;;11.71;100.00;100642.63;6056184;23;20070;-75
2022/10/23 06:52:30;;;;;;;5.43;4.93;;;;;;;11.85;100.00;100654.97;6020780;23;20027;-75
2022/10/23 06:55:13;;;;;;;5.00;4.70;;;;;;;12.32;100.00;100705.75;6079654;23;20101;-74
2022/10/23 06:57:40;;;;;;;5.00;4.70;;;;;;;12.03;100.00;100657.47;6028489;23;20101;-74
2022/10/23 07:00:08;;;;;;;5.00;4.70;;;;;;;12.00;100.00;100648.00;6077624;23;20118;-74
2022/10/23 07:02:34;;;;;;;5.95;4.93;;;;;;;12.09;100.00;100649.25;6081662;23;20688;-74
2022/10/23 07:05:01;;;;;;;5.55;5.15;;;;;;;12.51;100.00;100713.41;6078961;23;20034;-75
2022/10/23 07:07:30;;;;;;;5.13;4.82;;;;;;;12.29;100.00;100667.31;6072583;23;20340;-75
2022/10/23 07:09:57;;;;;;;5.47;5.10;;;;;;;12.24;100.00;100647.47;6050654;23;20480;-75
2022/10/23 07:12:23;;;;;;;5.22;4.82;;;;;;;12.49;100.00;100692.44;6073873;23;20030;-76
2022/10/23 07:14:50;;;;;;;5.05;4.75;;;;;;;12.71;100.00;100709.59;6046935;23;20103;-75
2022/10/23 07:17:16;;;;;;;5.10;4.72;;;;;;;12.41;100.00;100657.84;6059413;23;20052;-75
2022/10/23 07:19:45;;;;;;;5.60;5.30;;;;;;;12.25;100.00;100628.97;6082740;23;20034;-76
2022/10/23 07:22:12;;;;;;;7.00;4.97;;;;;;;12.90;100.00;100714.56;6090101;23;20079;-75
2022/10/23 07:24:41;;;;;;;5.07;4.78;;;;;;;12.52;100.00;100646.66;6075185;23;20048;-76
2022/10/23 07:27:08;;;;;;;5.55;5.25;;;;;;;13.04;100.00;100701.38;6075266;23;20541;-77
2022/10/23 07:29:34;;;;;;;4.90;4.60;;;;;;;12.62;100.00;100623.25;6075793;23;20083;-75
2022/10/23 07:32:01;;;;;;;5.50;5.20;;;;;;;12.52;100.00;100594.00;6081987;23;20089;-74
2022/10/23 07:34:27;;;;;;;4.72;4.53;;;;;;;13.26;100.00;100703.50;6079845;23;20470;-73
2022/10/23 07:36:55;;;;;;;5.72;5.28;;;;;;;12.96;100.00;100640.41;6076710;23;20651;-75
2022/10/23 07:39:24;;;;;;;5.10;4.90;;;;;;;13.05;100.00;100631.06;6075856;23;20022;-76
2022/10/23 07:41:51;;;;;;;5.05;4.75;;;;;;;13.47;100.00;100688.16;6082971;23;20635;-75
2022/10/23 07:44:17;;;;;;;5.57;5.07;;;;;;;13.53;100.00;100677.19;6079636;23;20018;-77
2022/10/23 07:46:45;;;;;;;5.72;5.18;;;;;;;13.50;100.00;100673.91;6074387;23;20058;-75
2022/10/23 07:49:11;;;;;;;5.45;5.03;;;;;;;13.36;100.00;100622.91;6078077;23;20083;-75
2022/10/23 07:51:38;;;;;;;5.70;5.00;;;;;;;13.69;100.00;100663.00;6075818;23;20757;-75
2022/10/23 07:54:06;;;;;;;5.10;4.80;;;;;;;13.49;100.00;100616.84;6080814;23;20121;-77
2022/10/23 07:56:32;;;;;;;5.28;4.85;;;;;;;13.95;100.00;100674.47;6070232;23;20025;-74
2022/10/23 07:58:59;;;;;;;5.25;4.90;;;;;;;13.82;100.00;100613.78;6065035;18;20110;-74
2022/10/23 08:01:39;;;;;;;6.88;4.57;;;;;;;14.32;100.00;100664.06;6045385;23;20579;-74
2022/10/23 08:04:05;;;;;;;6.00;5.50;;;;;;;14.37;100.00;100656.66;6051922;23;20162;-76
2022/10/23 08:06:34;;;;;;;5.40;5.03;;;;;;;14.53;100.00;100661.72;6076596;23;20492;-75
2022/10/23 08:09:01;;;;;;;5.85;5.32;;;;;;;14.06;100.00;100581.41;6036317;23;20030;-76
2022/10/23 08:11:34;;;;;;;6.38;5.50;;;;;;;14.64;100.00;100631.97;6038784;23;20037;-75
2022/10/23 08:14:05;;;;;;;5.57;5.18;;;;;;;14.87;100.00;100649.66;6067621;23;20033;-76
2022/10/23 08:16:33;;;;;;;5.50;5.00;;;;;;;14.85;100.00;100633.09;6043804;23;20031;-73
2022/10/23 08:19:00;;;;;;;5.88;5.47;;;;;;;15.03;100.00;100660.00;6071952;23;20022;-72
2022/10/23 08:21:27;;;;;;;5.18;4.88;;;;;;;15.22;100.00;100648.13;6054597;23;20026;-74
2022/10/23 08:23:54;;;;;;;5.18;4.88;;;;;;;14.98;100.00;100606.63;6076011;23;20536;-73
2022/10/23 08:26:21;;;;;;;5.80;5.40;;;;;;;14.13;100.00;100427.81;6051897;23;20038;-74
2022/10/23 08:28:47;;;;;;;5.50;5.20;;;;;;;15.52;100.00;100659.09;6079786;23;20010;-74
2022/10/23 08:31:15;;;;;;;5.97;5.53;;;;;;;15.62;100.00;100656.63;6045516;23;20018;-74
2022/10/23 08:33:42;;;;;;;5.50;5.20;;;;;;;15.81;100.00;100650.81;6071212;23;20376;-75
2022/10/23 08:36:18;;;;;;;5.72;5.43;;;;;;;15.90;100.00;100644.84;6052665;23;20053;-74
2022/10/23 08:38:45;;;;;;;5.53;5.13;;;;;;;15.95;100.00;100644.47;6051449;23;20037;-74
2022/10/23 08:41:40;;;;;;;5.60;5.30;;;;;;;15.67;100.00;100622.72;6046016;23;20007;-73
2022/10/23 08:44:29;;;;;;;6.30;5.50;;;;;;;15.85;100.00;100644.31;6079297;23;20018;-76
2022/10/23 08:47:10;;;;;;;7.88;5.82;;;;;;;15.98;100.00;100632.84;6039094;23;20106;-74
2022/10/23 08:49:48;;;;;;;5.82;5.43;;;;;;;15.97;100.00;100628.50;6090935;23;20084;-74
2022/10/23 08:52:22;;;;;;;5.60;5.30;;;;;;;15.95;100.00;100607.44;6038722;23;20030;-74
2022/10/23 08:55:20;;;;;;;6.10;5.00;;;;;;;16.11;100.00;100620.34;6064477;23;20026;-76
2022/10/23 08:58:02;;;;;;;5.30;5.00;;;;;;;16.11;100.00;100607.94;6064316;23;20026;-74
2022/10/23 09:00:29;;;;;;;5.43;5.03;;;;;;;16.29;100.00;100600.38;6077317;23;20053;-73
2022/10/23 09:02:55;;;;;;;5.53;4.97;;;;;;;16.14;100.00;100564.53;6060693;23;20031;-73
2022/10/23 09:05:45;;;;;;;5.40;5.13;;;;;;;16.59;100.00;100603.41;6087039;23;20036;-74
2022/10/23 09:08:26;;;;;;;5.80;5.50;;;;;;;16.72;100.00;100593.53;6025199;23;20025;-76
2022/10/23 09:11:20;;;;;;;6.63;6.22;;;;;;;16.88;100.00;100591.34;6091660;23;20056;-74
2022/10/23 09:14:26;;;;;;;6.43;5.30;;;;;;;16.98;99.51;100588.81;6048110;23;20026;-74
2022/10/23 09:17:24;;;;;;;7.68;5.22;;;;;;;16.99;98.19;100581.69;6092867;23;20036;-74
2022/10/23 09:20:29;;;;;;;5.70;5.18;;;;;;;17.11;97.87;100580.69;6060617;23;20034;-75
2022/10/23 09:23:25;;;;;;;7.88;6.20;;;;;;;16.98;97.76;100548.19;6078905;23;20095;-74
2022/10/23 09:25:55;;;;;;;5.60;5.20;;;;;;;17.21;97.12;100564.88;6024631;23;20072;-75
2022/10/23 09:28:26;;;;;;;7.40;5.57;;;;;;;17.21;96.18;100555.09;6086155;23;20038;-74
2022/10/23 09:30:52;;;;;;;6.32;5.88;;;;;;;17.08;96.12;100528.75;6053305;23;20025;-76
2022/10/23 09:33:27;;;;;;;5.45;5.15;;;;;;;17.36;95.65;100560.97;6079810;23;20029;-74
2022/10/23 09:36:02;;;;;;;6.10;5.50;;;;;;;17.15;95.54;100527.28;6037357;23;20029;-75
2022/10/23 09:38:34;;;;;;;5.78;5.47;;;;;;;17.39;95.02;100541.28;6085160;23;20026;-75
2022/10/23 09:41:06;;;;;;;5.88;5.32;;;;;;;17.50;94.34;100534.13;6036549;23;20080;-76
2022/10/23 09:43:33;;;;;;;5.80;5.50;;;;;;;17.24;93.75;100506.25;6086524;23;20049;-75
2022/10/23 09:46:05;;;;;;;6.32;5.93;;;;;;;17.54;93.79;100546.16;6059198;23;20038;-74
2022/10/23 09:48:33;;;;;;;5.85;5.55;;;;;;;17.52;94.67;100544.59;6086182;23;20576;-75
2022/10/23 09:51:14;;;;;;;6.90;5.78;;;;;;;17.60;94.16;100507.66;6060747;23;20016;-74
2022/10/23 09:53:51;;;;;;;5.60;5.25;;;;;;;17.79;94.72;100532.63;6086906;23;20026;-73
2022/10/23 09:56:28;;;;;;;5.68;5.30;;;;;;;17.43;93.42;100487.84;6061479;23;20015;-76
2022/10/23 09:59:20;;;;;;;5.55;5.35;;;;;;;17.63;94.90;100502.06;6077703;23;20046;-75
2022/10/23 10:01:51;;;;;;;6.25;5.85;;;;;;;17.62;94.31;100518.09;6058333;23;20145;-76
2022/10/23 10:04:31;;;;;;;5.80;5.50;;;;;;;17.25;96.36;100462.88;6029663;23;20014;-76
2022/10/23 10:07:04;;;;;;;5.70;5.32;;;;;;;17.07;96.62;100431.59;6057228;23;20051;-75
2022/10/23 10:09:31;;;;;;;5.60;5.30;;;;;;;17.56;97.22;100503.56;6061144;23;20084;-74
2022/10/23 10:12:18;;;;;;;6.00;5.50;;;;;;;17.47;97.50;100515.78;6048712;23;20022;-76
2022/10/23 10:14:59;;;;;;;5.88;5.38;;;;;;;17.10;95.96;100420.75;6064702;23;20038;-77
2022/10/23 10:17:44;;;;;;;5.50;5.20;;;;;;;17.51;97.22;100501.28;6041909;23;20022;-76
2022/10/23 10:20:23;;;;;;;5.80;5.50;;;;;;;17.54;97.91;100489.59;6070664;23;20029;-74
2022/10/23 10:23:05;;;;;;;6.00;5.60;;;;;;;17.28;98.13;100463.47;6056385;23;20026;-74
2022/10/23 10:25:39;;;;;;;5.60;5.30;;;;;;;17.35;96.90;100431.94;6081373;23;20026;-75
2022/10/23 10:28:37;;;;;;;5.90;5.50;;;;;;;17.62;95.67;100457.06;6057336;23;20029;-76
2022/10/23 10:31:41;;;;;;;6.07;5.60;;;;;;;17.71;95.53;100485.50;6010083;23;20072;-73
2022/10/23 10:34:28;;;;;;;5.80;5.50;;;;;;;17.91;94.96;100487.28;5967366;24;20306;-73
2022/10/23 10:37:01;;;;;;;5.90;5.50;;;;;;;16.79;95.61;100326.19;6044807;23;20057;-75
2022/10/23 10:40:09;;;;;;;5.82;5.40;;;;;;;17.80;95.65;100476.75;6072748;23;20681;-74
2022/10/23 10:42:57;;;;;;;5.55;5.25;;;;;;;17.88;94.02;100455.72;6027878;23;20022;-73
2022/10/23 10:45:30;;;;;;;5.72;5.43;;;;;;;17.46;95.06;100399.19;6082106;23;20249;-75
2022/10/23 10:48:09;;;;;;;6.13;5.78;;;;;;;17.86;95.71;100444.41;6039881;23;20105;-75
2022/10/23 10:50:41;;;;;;;5.72;5.30;;;;;;;17.98;95.70;100446.94;6076576;23;20187;-74
2022/10/23 10:53:23;;;;;;;5.75;5.45;;;;;;;17.96;95.28;100435.59;6046653;23;20392;-76
2022/10/23 10:55:53;;;;;;;5.82;5.43;;;;;;;17.91;94.55;100423.56;6059425;23;20025;-74
2022/10/23 10:58:37;;;;;;;5.40;5.10;;;;;;;17.54;95.67;100378.16;6048979;23;20029;-74
2022/10/23 11:01:15;;;;;;;5.68;5.38;;;;;;;17.79;96.88;100424.63;6070251;23;20029;-75
2022/10/23 11:03:53;;;;;;;5.50;5.20;;;;;;;17.75;95.99;100420.56;6024865;23;20015;-75
2022/10/23 11:06:23;;;;;;;7.20;5.68;;;;;;;17.46;97.23;100364.69;6073246;23;20023;-73
2022/10/23 11:09:31;;;;;;;6.40;5.80;;;;;;;17.76;98.39;100424.91;6050920;23;20021;-76
2022/10/23 11:11:57;;;;;;;5.70;5.40;;;;;;;17.02;97.49;100311.00;6037260;23;20033;-76
2022/10/23 11:14:31;;;;;;;5.78;5.47;;;;;;;17.62;98.09;100428.75;6048299;23;20093;-73
2022/10/23 11:17:23;;;;;;;5.70;5.40;;;;;;;17.51;97.84;100427.00;6080265;23;20018;-74
2022/10/23 11:20:04;;;;;;;6.07;5.68;;;;;;;17.29;98.55;100403.28;6049401;23;20026;-75
2022/10/23 11:22:49;;;;;;;6.03;5.63;;;;;;;17.10;100.00;100351.81;6070890;23;20036;-74
2022/10/23 11:25:52;;;;;;;5.70;5.40;;;;;;;16.29;100.00;100221.69;6050385;23;20014;-74
2022/10/23 11:28:37;;;;;;;5.32;5.03;;;;;;;16.50;100.00;100309.13;6082202;23;21637;-75
2022/10/23 11:31:17;;;;;;;5.97;5.57;;;;;;;17.20;100.00;100396.97;6051264;23;20038;-75
2022/10/23 11:34:08;;;;;;;5.70;5.40;;;;;;;17.13;100.00;100393.97;6082968;23;20026;-74
2022/10/23 11:36:49;;;;;;;5.60;5.30;;;;;;;17.01;100.00;100371.16;6053680;23;20038;-75
2022/10/23 11:39:28;;;;;;;5.80;5.50;;;;;;;16.59;100.00;100312.81;6077147;23;20643;-75
2022/10/23 11:42:08;;;;;;;;;;;;;;;17.01;100.00;100388.88;6037420;23;20104;-76
2022/10/23 11:44:46;;;;;;;5.63;5.30;;;;;;;17.09;100.00;100381.94;6053223;23;20898;-76